createdAt,value
2023-05-23T00:00:30.386Z,51.26
2023-05-23T00:01:30.384Z,50.87
2023-05-23T00:02:30.564Z,50.68
2023-05-23T00:03:30.489Z,50.87
2023-05-23T00:04:30.516Z,51.26
2023-05-23T00:05:30.387Z,51.07
2023-05-23T00:06:30.404Z,51.04
2023-05-23T00:07:30.387Z,51.23
2023-05-23T00:08:30.388Z,51.26
2023-05-23T00:09:30.386Z,51.14
2023-05-23T00:10:30.393Z,51.43
2023-05-23T00:11:30.387Z,51.23
2023-05-23T00:12:30.392Z,51.53
2023-05-23T00:13:30.391Z,51.43
2023-05-23T00:14:30.389Z,51.53
2023-05-23T00:15:30.396Z,52.00
2023-05-23T00:16:30.450Z,51.62
2023-05-23T00:17:30.410Z,51.33
2023-05-23T00:18:30.500Z,51.53
2023-05-23T00:19:30.562Z,51.53
2023-05-23T00:20:30.427Z,51.55
2023-05-23T00:21:30.391Z,51.43
2023-05-23T00:22:30.410Z,51.33
2023-05-23T00:23:30.409Z,51.33
2023-05-23T00:24:30.394Z,51.43
2023-05-23T00:25:30.410Z,51.33
2023-05-23T00:26:30.412Z,51.33
2023-05-23T00:27:30.405Z,51.43
2023-05-23T00:28:30.403Z,51.53
2023-05-23T00:29:30.401Z,52.10
2023-05-23T00:30:30.406Z,52.39
2023-05-23T00:31:30.431Z,52.20
2023-05-23T00:32:30.510Z,52.20
2023-05-23T00:33:30.402Z,52.10
2023-05-23T00:34:30.516Z,52.68
2023-05-23T00:35:30.409Z,52.39
2023-05-23T00:36:30.405Z,52.39
2023-05-23T00:37:30.403Z,52.48
2023-05-23T00:38:30.425Z,52.20
2023-05-23T00:39:30.414Z,52.77
2023-05-23T00:40:30.413Z,52.68
2023-05-23T00:41:30.405Z,52.77
2023-05-23T00:42:30.408Z,52.48
2023-05-23T00:43:30.418Z,52.58
2023-05-23T00:44:30.421Z,52.58
2023-05-23T00:45:30.408Z,52.48
2023-05-23T00:46:30.473Z,52.77
2023-05-23T00:47:30.452Z,53.06
2023-05-23T00:48:30.418Z,53.35
2023-05-23T00:49:30.501Z,53.16
2023-05-23T00:50:30.537Z,53.06
2023-05-23T00:51:30.415Z,53.06
2023-05-23T00:52:30.433Z,52.97
2023-05-23T00:53:30.423Z,52.97
2023-05-23T00:54:30.417Z,53.06
2023-05-23T00:55:30.430Z,53.25
2023-05-23T00:56:30.418Z,52.87
2023-05-23T00:57:30.414Z,52.58
2023-05-23T00:58:30.417Z,52.58
2023-05-23T00:59:30.421Z,52.58
2023-05-23T01:00:30.426Z,53.06
2023-05-23T01:01:30.432Z,53.23
2023-05-23T01:02:30.453Z,52.77
2023-05-23T01:03:30.571Z,52.87
2023-05-23T01:04:30.413Z,53.23
2023-05-23T01:05:30.434Z,53.35
2023-05-23T01:06:30.551Z,53.45
2023-05-23T01:07:30.418Z,53.16
2023-05-23T01:08:30.436Z,52.94
2023-05-23T01:09:30.416Z,53.13
2023-05-23T01:10:30.412Z,53.23
2023-05-23T01:11:30.438Z,52.84
2023-05-23T01:12:30.429Z,53.32
2023-05-23T01:13:30.428Z,53.42
2023-05-23T01:14:30.425Z,53.32
2023-05-23T01:15:30.426Z,53.32
2023-05-23T01:16:30.440Z,53.52
2023-05-23T01:17:30.466Z,53.80
2023-05-23T01:18:30.440Z,53.52
2023-05-23T01:19:30.478Z,53.32
2023-05-23T01:20:30.426Z,53.42
2023-05-23T01:21:30.423Z,53.52
2023-05-23T01:22:30.527Z,53.61
2023-05-23T01:23:30.433Z,53.61
2023-05-23T01:24:30.429Z,53.32
2023-05-23T01:25:30.423Z,53.70
2023-05-23T01:26:30.419Z,53.61
2023-05-23T01:27:30.426Z,53.42
2023-05-23T01:28:30.424Z,53.52
2023-05-23T01:29:30.424Z,53.23
2023-05-23T01:30:30.436Z,53.90
2023-05-23T01:31:30.466Z,53.80
2023-05-23T01:32:30.462Z,53.52
2023-05-23T01:33:30.424Z,53.90
2023-05-23T01:34:30.420Z,54.09
2023-05-23T01:35:30.439Z,53.70
2023-05-23T01:36:30.425Z,54.47
2023-05-23T01:37:30.436Z,54.09
2023-05-23T01:38:30.540Z,54.86
2023-05-23T01:39:30.434Z,54.47
2023-05-23T01:40:30.434Z,54.77
2023-05-23T01:41:30.430Z,54.28
2023-05-23T01:42:30.448Z,54.47
2023-05-23T01:43:30.456Z,54.38
2023-05-23T01:44:30.446Z,54.47
2023-05-23T01:45:30.484Z,54.96
2023-05-23T01:46:30.472Z,54.28
2023-05-23T01:47:30.466Z,54.28
2023-05-23T01:48:30.434Z,54.28
2023-05-23T01:49:30.433Z,54.47
2023-05-23T01:50:30.439Z,54.35
2023-05-23T01:51:30.441Z,54.74
2023-05-23T01:52:30.450Z,54.77
2023-05-23T01:53:30.430Z,54.67
2023-05-23T01:54:30.538Z,54.55
2023-05-23T01:55:30.433Z,54.57
2023-05-23T01:56:30.457Z,54.74
2023-05-23T01:57:30.437Z,54.64
2023-05-23T01:58:30.429Z,54.93
2023-05-23T01:59:30.434Z,54.83
2023-05-23T02:00:30.426Z,55.15
2023-05-23T02:01:30.469Z,54.64
2023-05-23T02:02:30.483Z,55.05
2023-05-23T02:03:30.479Z,54.64
2023-05-23T02:04:30.440Z,54.86
2023-05-23T02:05:30.437Z,54.83
2023-05-23T02:06:30.438Z,54.83
2023-05-23T02:07:30.448Z,54.57
2023-05-23T02:08:30.442Z,54.47
2023-05-23T02:09:30.440Z,54.93
2023-05-23T02:10:30.549Z,55.22
2023-05-23T02:11:30.437Z,55.34
2023-05-23T02:12:30.460Z,55.12
2023-05-23T02:13:30.433Z,55.51
2023-05-23T02:14:30.429Z,55.41
2023-05-23T02:15:30.447Z,55.60
2023-05-23T02:16:30.490Z,55.41
2023-05-23T02:17:30.479Z,55.15
2023-05-23T02:18:30.435Z,55.44
2023-05-23T02:19:30.490Z,55.24
2023-05-23T02:20:30.434Z,55.73
2023-05-23T02:21:31.230Z,56.01
2023-05-23T02:22:30.446Z,55.79
2023-05-23T02:23:30.450Z,55.73
2023-05-23T02:24:30.451Z,56.08
2023-05-23T02:25:30.440Z,55.89
2023-05-23T02:26:30.535Z,56.27
2023-05-23T02:27:30.448Z,56.27
2023-05-23T02:28:30.475Z,55.89
2023-05-23T02:29:30.464Z,55.91
2023-05-23T02:30:30.442Z,56.40
2023-05-23T02:31:30.555Z,56.08
2023-05-23T02:32:30.557Z,56.01
2023-05-23T02:33:30.444Z,55.69
2023-05-23T02:34:30.449Z,55.73
2023-05-23T02:35:30.442Z,55.44
2023-05-23T02:36:30.439Z,55.69
2023-05-23T02:37:30.453Z,55.22
2023-05-23T02:38:30.445Z,55.32
2023-05-23T02:39:30.458Z,55.51
2023-05-23T02:40:30.439Z,55.22
2023-05-23T02:41:30.448Z,55.22
2023-05-23T02:42:30.536Z,55.41
2023-05-23T02:43:30.441Z,55.51
2023-05-23T02:44:30.443Z,55.22
2023-05-23T02:45:30.441Z,55.22
2023-05-23T02:46:30.466Z,55.22
2023-05-23T02:47:30.460Z,55.51
2023-05-23T02:48:30.441Z,55.12
2023-05-23T02:49:30.454Z,55.51
2023-05-23T02:50:30.451Z,55.99
2023-05-23T02:51:30.449Z,56.18
2023-05-23T02:52:30.441Z,56.27
2023-05-23T02:53:30.449Z,56.08
2023-05-23T02:54:30.438Z,56.08
2023-05-23T02:55:30.451Z,56.27
2023-05-23T02:56:30.449Z,56.08
2023-05-23T02:57:30.451Z,55.89
2023-05-23T02:58:30.534Z,55.79
2023-05-23T02:59:30.445Z,55.51
2023-05-23T03:00:30.440Z,55.99
2023-05-23T03:01:30.471Z,55.79
2023-05-23T03:02:30.475Z,56.08
2023-05-23T03:03:30.508Z,56.56
2023-05-23T03:04:30.457Z,56.27
2023-05-23T03:05:30.477Z,55.99
2023-05-23T03:06:30.456Z,56.27
2023-05-23T03:07:30.488Z,56.27
2023-05-23T03:08:30.468Z,56.76
2023-05-23T03:09:30.454Z,56.95
2023-05-23T03:10:30.456Z,57.04
2023-05-23T03:11:30.457Z,57.33
2023-05-23T03:12:30.466Z,57.14
2023-05-23T03:13:30.505Z,56.85
2023-05-23T03:14:30.567Z,57.04
2023-05-23T03:15:30.453Z,57.33
2023-05-23T03:16:30.510Z,57.04
2023-05-23T03:17:30.511Z,56.76
2023-05-23T03:18:30.468Z,56.46
2023-05-23T03:19:30.603Z,56.85
2023-05-23T03:20:30.456Z,57.04
2023-05-23T03:21:30.458Z,57.23
2023-05-23T03:22:30.460Z,57.14
2023-05-23T03:23:30.452Z,57.23
2023-05-23T03:24:30.466Z,57.52
2023-05-23T03:25:30.466Z,57.04
2023-05-23T03:26:30.462Z,57.33
2023-05-23T03:27:30.483Z,57.33
2023-05-23T03:28:30.452Z,57.62
2023-05-23T03:29:30.456Z,57.71
2023-05-23T03:30:30.590Z,57.23
2023-05-23T03:31:30.486Z,57.52
2023-05-23T03:32:30.495Z,58.58
2023-05-23T03:33:30.465Z,58.29
2023-05-23T03:34:30.507Z,58.77
2023-05-23T03:35:30.513Z,59.16
2023-05-23T03:36:30.458Z,59.54
2023-05-23T03:37:30.466Z,59.73
2023-05-23T03:38:30.469Z,59.83
2023-05-23T03:39:30.452Z,59.54
2023-05-23T03:40:30.463Z,59.73
2023-05-23T03:41:30.468Z,60.21
2023-05-23T03:42:30.460Z,60.02
2023-05-23T03:43:30.462Z,59.34
2023-05-23T03:44:30.458Z,59.34
2023-05-23T03:45:30.505Z,59.73
2023-05-23T03:46:30.670Z,59.83
2023-05-23T03:47:30.482Z,59.92
2023-05-23T03:48:30.469Z,59.44
2023-05-23T03:49:30.456Z,59.64
2023-05-23T03:50:30.467Z,59.06
2023-05-23T03:51:30.454Z,58.58
2023-05-23T03:52:30.459Z,58.39
2023-05-23T03:53:30.476Z,58.20
2023-05-23T03:54:30.498Z,58.58
2023-05-23T03:55:30.457Z,58.29
2023-05-23T03:56:30.474Z,58.39
2023-05-23T03:57:30.458Z,57.88
2023-05-23T03:58:30.450Z,57.90
2023-05-23T03:59:30.465Z,57.97
2023-05-23T04:00:30.451Z,58.39
2023-05-23T04:01:30.456Z,58.36
2023-05-23T04:02:30.618Z,58.64
2023-05-23T04:03:30.515Z,58.64
2023-05-23T04:04:30.529Z,58.64
2023-05-23T04:05:30.493Z,58.45
2023-05-23T04:06:30.452Z,58.64
2023-05-23T04:07:30.473Z,58.64
2023-05-23T04:08:30.470Z,58.55
2023-05-23T04:09:30.450Z,58.94
2023-05-23T04:10:30.452Z,59.03
2023-05-23T04:11:30.462Z,59.03
2023-05-23T04:12:30.451Z,59.03
2023-05-23T04:13:30.445Z,59.32
2023-05-23T04:14:30.453Z,59.51
2023-05-23T04:15:30.448Z,59.22
2023-05-23T04:16:30.497Z,59.41
2023-05-23T04:17:30.477Z,59.32
2023-05-23T04:18:30.581Z,59.32
2023-05-23T04:19:30.490Z,59.61
2023-05-23T04:20:30.450Z,59.80
2023-05-23T04:21:30.447Z,60.57
2023-05-23T04:22:30.449Z,60.18
2023-05-23T04:23:30.437Z,60.66
2023-05-23T04:24:30.435Z,61.05
2023-05-23T04:25:30.442Z,60.85
2023-05-23T04:26:30.435Z,60.95
2023-05-23T04:27:30.437Z,60.85
2023-05-23T04:28:30.430Z,60.66
2023-05-23T04:29:30.468Z,60.66
2023-05-23T04:30:30.540Z,60.57
2023-05-23T04:31:30.530Z,60.66
2023-05-23T04:32:30.488Z,60.66
2023-05-23T04:33:30.454Z,60.57
2023-05-23T04:34:30.536Z,60.57
2023-05-23T04:35:30.479Z,60.95
2023-05-23T04:36:30.424Z,60.85
2023-05-23T04:37:30.428Z,61.43
2023-05-23T04:38:30.428Z,61.43
2023-05-23T04:39:30.441Z,61.52
2023-05-23T04:40:30.447Z,62.10
2023-05-23T04:41:30.451Z,61.81
2023-05-23T04:42:30.435Z,61.24
2023-05-23T04:43:30.441Z,61.05
2023-05-23T04:44:30.478Z,60.66
2023-05-23T04:45:30.433Z,60.47
2023-05-23T04:46:30.444Z,60.66
2023-05-23T04:47:30.465Z,60.95
2023-05-23T04:48:30.443Z,61.52
2023-05-23T04:49:30.441Z,61.33
2023-05-23T04:50:30.469Z,61.91
2023-05-23T04:51:30.439Z,61.81
2023-05-23T04:52:30.436Z,61.33
2023-05-23T04:53:30.498Z,61.14
2023-05-23T04:54:30.424Z,61.33
2023-05-23T04:55:30.451Z,61.91
2023-05-23T04:56:30.432Z,61.62
2023-05-23T04:57:30.429Z,61.27
2023-05-23T04:58:30.450Z,61.81
2023-05-23T04:59:30.428Z,61.33
2023-05-23T05:00:30.502Z,61.72
2023-05-23T05:01:30.485Z,62.29
2023-05-23T05:02:30.468Z,61.91
2023-05-23T05:03:30.481Z,61.81
2023-05-23T05:04:30.499Z,62.19
2023-05-23T05:05:30.439Z,62.39
2023-05-23T05:06:30.527Z,62.48
2023-05-23T05:07:30.431Z,62.19
2023-05-23T05:08:30.445Z,61.81
2023-05-23T05:09:30.439Z,62.01
2023-05-23T05:10:30.448Z,61.81
2023-05-23T05:11:30.439Z,61.91
2023-05-23T05:12:30.447Z,61.72
2023-05-23T05:13:30.430Z,61.91
2023-05-23T05:14:30.468Z,61.72
2023-05-23T05:15:30.438Z,62.29
2023-05-23T05:16:30.443Z,62.10
2023-05-23T05:17:30.503Z,61.91
2023-05-23T05:18:30.441Z,61.81
2023-05-23T05:19:30.532Z,62.23
2023-05-23T05:20:30.446Z,62.19
2023-05-23T05:21:30.423Z,62.58
2023-05-23T05:22:30.545Z,62.68
2023-05-23T05:23:30.490Z,62.68
2023-05-23T05:24:30.437Z,62.68
2023-05-23T05:25:30.452Z,62.39
2023-05-23T05:26:30.456Z,62.48
2023-05-23T05:27:30.486Z,62.52
2023-05-23T05:28:30.428Z,62.52
2023-05-23T05:29:30.437Z,62.52
2023-05-23T05:30:30.439Z,62.32
2023-05-23T05:31:30.516Z,62.13
2023-05-23T05:32:30.507Z,61.84
2023-05-23T05:33:30.446Z,62.04
2023-05-23T05:34:30.587Z,62.04
2023-05-23T05:35:30.462Z,62.04
2023-05-23T05:36:30.426Z,61.08
2023-05-23T05:37:30.422Z,61.46
2023-05-23T05:38:30.530Z,61.27
2023-05-23T05:39:30.429Z,62.04
2023-05-23T05:40:30.427Z,62.42
2023-05-23T05:41:30.421Z,62.42
2023-05-23T05:42:30.424Z,62.71
2023-05-23T05:43:30.427Z,62.32
2023-05-23T05:44:30.497Z,62.52
2023-05-23T05:45:30.439Z,62.42
2023-05-23T05:46:30.442Z,62.90
2023-05-23T05:47:30.445Z,62.52
2023-05-23T05:48:30.450Z,62.52
2023-05-23T05:49:30.423Z,62.52
2023-05-23T05:50:30.425Z,62.52
2023-05-23T05:51:30.449Z,62.42
2023-05-23T05:52:30.458Z,62.04
2023-05-23T05:53:30.428Z,61.75
2023-05-23T05:54:30.539Z,62.04
2023-05-23T05:55:30.423Z,62.71
2023-05-23T05:56:30.434Z,62.90
2023-05-23T05:57:30.431Z,62.81
2023-05-23T05:58:30.450Z,62.52
2023-05-23T05:59:32.410Z,62.58
2023-05-23T06:00:30.456Z,62.48
2023-05-23T06:01:30.448Z,62.96
2023-05-23T06:02:30.478Z,63.16
2023-05-23T06:03:30.648Z,63.83
2023-05-23T06:04:30.481Z,64.50
2023-05-23T06:05:30.429Z,64.98
2023-05-23T06:06:30.445Z,64.79
2023-05-23T06:07:30.429Z,64.98
2023-05-23T06:08:30.423Z,65.11
2023-05-23T06:09:30.423Z,64.63
2023-05-23T06:10:30.530Z,64.92
2023-05-23T06:11:30.422Z,65.20
2023-05-23T06:12:30.430Z,64.92
2023-05-23T06:13:30.425Z,64.43
2023-05-23T06:14:30.424Z,64.92
2023-05-23T06:15:30.414Z,65.11
2023-05-23T06:16:30.473Z,64.72
2023-05-23T06:17:30.486Z,64.92
2023-05-23T06:18:30.441Z,64.92
2023-05-23T06:19:30.495Z,65.30
2023-05-23T06:20:30.427Z,65.20
2023-05-23T06:21:30.435Z,64.82
2023-05-23T06:22:30.461Z,64.53
2023-05-23T06:23:30.471Z,64.72
2023-05-23T06:24:30.452Z,64.43
2023-05-23T06:25:30.429Z,64.82
2023-05-23T06:26:30.527Z,65.01
2023-05-23T06:27:30.416Z,65.49
2023-05-23T06:28:30.423Z,64.92
2023-05-23T06:29:30.485Z,64.82
2023-05-23T06:30:30.553Z,65.11
2023-05-23T06:31:30.459Z,64.34
2023-05-23T06:32:30.457Z,64.15
2023-05-23T06:33:30.501Z,64.05
2023-05-23T06:34:30.441Z,63.57
2023-05-23T06:35:30.411Z,63.38
2023-05-23T06:36:30.411Z,63.67
2023-05-23T06:37:30.412Z,63.86
2023-05-23T06:38:30.421Z,64.25
2023-05-23T06:39:30.415Z,64.43
2023-05-23T06:40:30.437Z,64.63
2023-05-23T06:41:30.426Z,64.34
2023-05-23T06:42:30.523Z,64.25
2023-05-23T06:43:30.438Z,64.43
2023-05-23T06:44:30.432Z,64.72
2023-05-23T06:45:30.456Z,64.56
2023-05-23T06:46:30.467Z,64.76
2023-05-23T06:47:30.431Z,63.99
2023-05-23T06:48:30.429Z,63.35
2023-05-23T06:49:30.428Z,62.77
2023-05-23T06:50:30.437Z,62.87
2023-05-23T06:51:30.446Z,62.58
2023-05-23T06:52:30.427Z,62.00
2023-05-23T06:53:30.424Z,61.52
2023-05-23T06:54:30.429Z,61.33
2023-05-23T06:55:30.470Z,61.23
2023-05-23T06:56:30.446Z,61.55
2023-05-23T06:57:30.432Z,61.94
2023-05-23T06:58:30.545Z,61.58
2023-05-23T06:59:30.431Z,60.91
2023-05-23T07:00:30.454Z,59.85
2023-05-23T07:01:30.464Z,59.75
2023-05-23T07:02:30.463Z,59.75
2023-05-23T07:03:30.445Z,59.56
2023-05-23T07:04:30.446Z,59.56
2023-05-23T07:05:30.515Z,59.66
2023-05-23T07:06:30.450Z,59.34
2023-05-23T07:07:30.460Z,59.72
2023-05-23T07:08:30.478Z,60.04
2023-05-23T07:09:30.452Z,60.69
2023-05-23T07:10:30.490Z,60.81
2023-05-23T07:11:30.470Z,61.00
2023-05-23T07:12:31.408Z,61.39
2023-05-23T07:13:30.472Z,61.71
2023-05-23T07:14:30.597Z,60.87
2023-05-23T07:15:30.482Z,58.37
2023-05-23T07:16:30.528Z,57.69
2023-05-23T07:17:30.544Z,57.98
2023-05-23T07:18:30.504Z,57.50
2023-05-23T07:19:30.624Z,56.73
2023-05-23T07:20:30.520Z,56.82
2023-05-23T07:21:30.509Z,57.09
2023-05-23T07:22:30.532Z,57.47
2023-05-23T07:23:30.523Z,57.47
2023-05-23T07:24:30.559Z,57.76
2023-05-23T07:25:30.534Z,57.67
2023-05-23T07:26:30.546Z,58.05
2023-05-23T07:27:30.551Z,58.05
2023-05-23T07:28:30.559Z,57.37
2023-05-23T07:29:30.553Z,57.47
2023-05-23T07:30:32.030Z,57.67
2023-05-23T07:31:30.589Z,58.34
2023-05-23T07:32:30.593Z,58.53
2023-05-23T07:33:30.565Z,57.67
2023-05-23T07:34:30.586Z,57.28
2023-05-23T07:35:30.578Z,56.99
2023-05-23T07:36:30.599Z,57.73
2023-05-23T07:37:30.591Z,57.95
2023-05-23T07:38:30.602Z,58.22
2023-05-23T07:39:30.606Z,58.44
2023-05-23T07:40:30.605Z,58.82
2023-05-23T07:41:30.608Z,58.63
2023-05-23T07:42:30.631Z,59.11
2023-05-23T07:43:30.610Z,58.72
2023-05-23T07:44:30.602Z,59.20
2023-05-23T07:45:30.618Z,58.92
2023-05-23T07:46:30.685Z,59.11
2023-05-23T07:47:30.640Z,58.47
2023-05-23T07:48:30.627Z,58.65
2023-05-23T07:49:30.623Z,57.60
2023-05-23T07:50:30.655Z,58.47
2023-05-23T07:51:30.635Z,58.95
2023-05-23T07:52:30.643Z,57.89
2023-05-23T07:53:30.666Z,57.21
2023-05-23T07:54:30.640Z,57.50
2023-05-23T07:55:30.640Z,57.60
2023-05-23T07:56:30.657Z,57.40
2023-05-23T07:57:30.653Z,58.37
2023-05-23T07:58:30.668Z,57.60
2023-05-23T07:59:30.699Z,57.50
2023-05-23T08:00:30.664Z,57.89
2023-05-23T08:01:30.699Z,57.50
2023-05-23T08:02:30.770Z,57.50
2023-05-23T08:03:30.689Z,57.79
2023-05-23T08:04:30.751Z,57.79
2023-05-23T08:05:30.705Z,58.27
2023-05-23T08:06:30.703Z,58.65
2023-05-23T08:07:30.769Z,58.65
2023-05-23T08:08:30.711Z,58.47
2023-05-23T08:09:31.620Z,58.75
2023-05-23T08:10:30.717Z,58.65
2023-05-23T08:11:30.715Z,58.65
2023-05-23T08:12:30.715Z,59.23
2023-05-23T08:13:30.732Z,59.43
2023-05-23T08:14:42.779Z,59.14
2023-05-23T08:15:30.721Z,58.65
2023-05-23T08:16:30.779Z,59.14
2023-05-23T08:17:30.852Z,58.95
2023-05-23T08:18:30.850Z,58.78
2023-05-23T08:19:30.775Z,58.30
2023-05-23T08:20:30.867Z,57.82
2023-05-23T08:21:30.758Z,57.05
2023-05-23T08:22:30.772Z,57.24
2023-05-23T08:23:30.761Z,56.49
2023-05-23T08:24:30.767Z,56.88
2023-05-23T08:25:30.876Z,56.98
2023-05-23T08:26:30.793Z,55.82
2023-05-23T08:27:30.789Z,55.82
2023-05-23T08:28:30.803Z,55.44
2023-05-23T08:29:30.803Z,55.05
2023-05-23T08:30:30.796Z,54.47
2023-05-23T08:31:30.856Z,55.05
2023-05-23T08:32:30.825Z,55.05
2023-05-23T08:33:30.814Z,54.47
2023-05-23T08:34:30.817Z,55.05
2023-05-23T08:35:30.844Z,56.27
2023-05-23T08:36:30.809Z,55.82
2023-05-23T08:37:30.834Z,55.54
2023-05-23T08:38:30.830Z,55.54
2023-05-23T08:39:30.858Z,56.30
2023-05-23T08:40:30.846Z,56.40
2023-05-23T08:41:30.844Z,56.11
2023-05-23T08:42:30.901Z,56.30
2023-05-23T08:43:30.855Z,56.01
2023-05-23T08:44:30.889Z,56.49
2023-05-23T08:45:30.933Z,57.46
2023-05-23T08:46:30.893Z,55.92
2023-05-23T08:47:30.918Z,56.11
2023-05-23T08:48:30.874Z,57.17
2023-05-23T08:49:30.886Z,56.79
2023-05-23T08:50:30.918Z,56.79
2023-05-23T08:51:30.908Z,57.27
2023-05-23T08:52:30.902Z,57.27
2023-05-23T08:53:30.900Z,57.39
2023-05-23T08:54:30.891Z,58.45
2023-05-23T08:55:30.891Z,58.17
2023-05-23T08:56:30.921Z,57.78
2023-05-23T08:57:30.905Z,57.71
2023-05-23T08:58:31.579Z,57.42
2023-05-23T08:59:30.910Z,56.74
2023-05-23T09:00:30.983Z,56.26
2023-05-23T09:01:30.948Z,56.62
2023-05-23T09:02:30.960Z,57.29
2023-05-23T09:03:30.943Z,57.97
2023-05-23T09:04:30.976Z,58.17
2023-05-23T09:05:30.984Z,58.45
2023-05-23T09:06:30.956Z,58.75
2023-05-23T09:07:30.950Z,58.94
2023-05-23T09:08:31.042Z,59.42
2023-05-23T09:09:31.001Z,59.87
2023-05-23T09:10:30.977Z,60.28
2023-05-23T09:11:30.988Z,60.93
2023-05-23T09:12:30.985Z,61.25
2023-05-23T09:13:30.971Z,61.25
2023-05-23T09:14:31.009Z,61.16
2023-05-23T09:15:31.018Z,61.06
2023-05-23T09:16:31.058Z,60.58
2023-05-23T09:17:31.004Z,61.06
2023-05-23T09:18:31.008Z,61.19
2023-05-23T09:19:31.141Z,60.96
2023-05-23T09:20:31.019Z,60.51
2023-05-23T09:21:31.027Z,61.25
2023-05-23T09:22:31.016Z,61.35
2023-05-23T09:23:31.003Z,61.54
2023-05-23T09:24:31.017Z,60.96
2023-05-23T09:25:31.030Z,61.25
2023-05-23T09:26:31.030Z,61.74
2023-05-23T09:27:31.028Z,62.22
2023-05-23T09:28:31.043Z,62.22
2023-05-23T09:29:31.043Z,62.12
2023-05-23T09:30:31.031Z,61.93
2023-05-23T09:31:31.095Z,62.79
2023-05-23T09:32:31.187Z,62.89
2023-05-23T09:33:31.073Z,62.70
2023-05-23T09:34:31.063Z,62.02
2023-05-23T09:35:31.076Z,62.02
2023-05-23T09:36:31.068Z,61.64
2023-05-23T09:37:31.078Z,62.02
2023-05-23T09:38:31.079Z,62.41
2023-05-23T09:39:31.078Z,61.83
2023-05-23T09:40:31.162Z,61.74
2023-05-23T09:41:31.088Z,61.25
2023-05-23T09:42:31.086Z,61.51
2023-05-23T09:43:31.095Z,61.61
2023-05-23T09:44:31.108Z,61.61
2023-05-23T09:45:31.128Z,62.28
2023-05-23T09:46:31.162Z,62.86
2023-05-23T09:47:31.208Z,62.96
2023-05-23T09:48:31.128Z,63.63
2023-05-23T09:49:31.160Z,63.54
2023-05-23T09:50:31.116Z,63.79
2023-05-23T09:51:31.124Z,64.31
2023-05-23T09:52:31.137Z,64.08
2023-05-23T09:53:31.140Z,63.79
2023-05-23T09:54:31.162Z,64.21
2023-05-23T09:55:31.143Z,64.18
2023-05-23T09:56:31.151Z,64.18
2023-05-23T09:57:31.172Z,63.60
2023-05-23T09:58:31.164Z,63.73
2023-05-23T09:59:31.154Z,63.54
2023-05-23T10:00:31.203Z,63.54
2023-05-23T10:01:31.214Z,63.73
2023-05-23T10:02:31.192Z,64.31
2023-05-23T10:03:31.182Z,64.21
2023-05-23T10:04:31.223Z,64.31
2023-05-23T10:05:31.191Z,64.21
2023-05-23T10:06:31.202Z,64.40
2023-05-23T10:07:31.249Z,64.50
2023-05-23T10:08:31.225Z,65.17
2023-05-23T10:09:31.243Z,66.04
2023-05-23T10:10:31.202Z,65.56
2023-05-23T10:11:31.220Z,66.14
2023-05-23T10:12:31.235Z,66.24
2023-05-23T10:13:31.207Z,66.43
2023-05-23T10:14:31.207Z,66.62
2023-05-23T10:15:31.222Z,66.72
2023-05-23T10:16:31.247Z,66.72
2023-05-23T10:17:31.258Z,66.43
2023-05-23T10:18:31.227Z,67.20
2023-05-23T10:19:31.263Z,67.00
2023-05-23T10:20:31.238Z,67.40
2023-05-23T10:21:31.276Z,67.97
2023-05-23T10:22:31.247Z,67.78
2023-05-23T10:23:31.251Z,68.16
2023-05-23T10:24:31.264Z,68.32
2023-05-23T10:25:31.273Z,68.52
2023-05-23T10:26:31.250Z,68.80
2023-05-23T10:27:31.289Z,69.19
2023-05-23T10:28:31.249Z,69.48
2023-05-23T10:29:31.343Z,69.19
2023-05-23T10:30:31.263Z,70.15
2023-05-23T10:31:31.367Z,70.44
2023-05-23T10:32:31.292Z,70.15
2023-05-23T10:33:31.893Z,69.96
2023-05-23T10:34:31.387Z,70.06
2023-05-23T10:35:31.441Z,70.35
2023-05-23T10:36:31.555Z,71.12
2023-05-23T10:37:32.216Z,70.73
2023-05-23T10:38:31.354Z,71.22
2023-05-23T10:39:31.312Z,71.60
2023-05-23T10:40:31.373Z,71.60
2023-05-23T10:41:31.294Z,72.27
2023-05-23T10:42:31.300Z,72.66
2023-05-23T10:43:31.330Z,73.24
2023-05-23T10:44:31.300Z,73.20
2023-05-23T10:45:31.340Z,73.78
2023-05-23T10:46:31.357Z,74.36
2023-05-23T10:47:31.326Z,74.45
2023-05-23T10:48:31.331Z,74.84
2023-05-23T10:49:31.364Z,74.65
2023-05-23T10:50:31.320Z,75.13
2023-05-23T10:51:31.337Z,75.13
2023-05-23T10:52:31.320Z,75.71
2023-05-23T10:53:31.323Z,75.45
2023-05-23T10:54:31.352Z,75.36
2023-05-23T10:55:31.333Z,75.32
2023-05-23T10:56:31.335Z,75.42
2023-05-23T10:57:31.334Z,75.51
2023-05-23T10:58:31.407Z,75.80
2023-05-23T10:59:31.373Z,76.03
2023-05-23T11:00:31.444Z,75.80
2023-05-23T11:01:31.596Z,76.18
2023-05-23T11:02:31.562Z,76.48
2023-05-23T11:03:31.511Z,76.23
2023-05-23T11:04:31.350Z,76.86
2023-05-23T11:05:31.384Z,76.09
2023-05-23T11:06:31.464Z,75.99
2023-05-23T11:07:31.379Z,75.80
2023-05-23T11:08:43.158Z,76.76
2023-05-23T11:09:31.366Z,76.38
2023-05-23T11:10:31.391Z,77.06
2023-05-23T11:11:31.384Z,77.25
2023-05-23T11:12:31.383Z,76.96
2023-05-23T11:13:31.392Z,77.44
2023-05-23T11:14:31.403Z,77.25
2023-05-23T11:15:31.382Z,77.25
2023-05-23T11:16:31.507Z,77.34
2023-05-23T11:17:31.485Z,76.76
2023-05-23T11:18:31.394Z,77.06
2023-05-23T11:19:31.481Z,76.76
2023-05-23T11:20:31.421Z,76.48
2023-05-23T11:21:31.438Z,76.76
2023-05-23T11:22:31.412Z,76.96
2023-05-23T11:23:31.443Z,76.86
2023-05-23T11:24:31.432Z,76.76
2023-05-23T11:25:31.449Z,77.11
2023-05-23T11:26:31.413Z,76.96
2023-05-23T11:27:31.437Z,77.31
2023-05-23T11:28:31.431Z,76.63
2023-05-23T11:29:31.436Z,77.31
2023-05-23T11:30:31.511Z,77.88
2023-05-23T11:31:31.435Z,77.59
2023-05-23T11:32:31.471Z,77.98
2023-05-23T11:33:31.449Z,78.17
2023-05-23T11:34:31.450Z,77.88
2023-05-23T11:35:31.460Z,77.78
2023-05-23T11:36:31.446Z,77.78
2023-05-23T11:37:31.491Z,77.78
2023-05-23T11:38:31.469Z,77.50
2023-05-23T11:39:31.453Z,77.21
2023-05-23T11:40:31.486Z,77.50
2023-05-23T11:41:31.463Z,77.50
2023-05-23T11:42:31.453Z,77.94
2023-05-23T11:43:31.536Z,77.65
2023-05-23T11:44:31.460Z,78.03
2023-05-23T11:45:31.462Z,78.03
2023-05-23T11:46:31.559Z,78.81
2023-05-23T11:47:31.609Z,78.42
2023-05-23T11:48:31.480Z,78.90
2023-05-23T11:49:31.473Z,79.58
2023-05-23T11:50:31.472Z,79.86
2023-05-23T11:51:31.487Z,80.25
2023-05-23T11:52:31.495Z,80.44
2023-05-23T11:53:31.487Z,81.12
2023-05-23T11:54:31.492Z,81.12
2023-05-23T11:55:31.477Z,81.21
2023-05-23T11:56:31.516Z,81.40
2023-05-23T11:57:31.510Z,81.88
2023-05-23T11:58:31.486Z,81.88
2023-05-23T11:59:31.486Z,82.08
2023-05-23T12:00:31.497Z,82.56
2023-05-23T12:01:31.505Z,82.17
2023-05-23T12:02:31.548Z,82.85
2023-05-23T12:03:31.804Z,83.04
2023-05-23T12:04:31.545Z,82.37
2023-05-23T12:05:31.487Z,82.37
2023-05-23T12:06:31.491Z,81.98
2023-05-23T12:07:31.552Z,81.79
2023-05-23T12:08:31.517Z,81.21
2023-05-23T12:09:31.532Z,81.40
2023-05-23T12:10:31.528Z,80.35
2023-05-23T12:11:31.514Z,80.15
2023-05-23T12:12:31.982Z,80.25
2023-05-23T12:13:31.549Z,79.77
2023-05-23T12:14:31.500Z,79.86
2023-05-23T12:15:31.533Z,80.15
2023-05-23T12:16:31.565Z,79.77
2023-05-23T12:17:31.556Z,80.06
2023-05-23T12:18:31.510Z,79.38
2023-05-23T12:19:31.600Z,79.10
2023-05-23T12:20:31.518Z,78.61
2023-05-23T12:21:31.515Z,78.71
2023-05-23T12:22:31.531Z,78.61
2023-05-23T12:23:33.892Z,78.81
2023-05-23T12:24:31.541Z,78.61
2023-05-23T12:25:31.523Z,77.94
2023-05-23T12:26:31.534Z,77.65
2023-05-23T12:27:31.527Z,77.75
2023-05-23T12:28:31.540Z,77.94
2023-05-23T12:29:32.917Z,77.94
2023-05-23T12:30:31.550Z,78.13
2023-05-23T12:31:31.601Z,78.61
2023-05-23T12:32:31.559Z,79.28
2023-05-23T12:33:31.545Z,79.58
2023-05-23T12:34:31.569Z,78.71
2023-05-23T12:35:31.588Z,78.23
2023-05-23T12:36:32.017Z,78.52
2023-05-23T12:37:31.579Z,78.61
2023-05-23T12:38:31.560Z,78.03
2023-05-23T12:39:31.576Z,77.94
2023-05-23T12:40:31.549Z,78.13
2023-05-23T12:41:31.561Z,77.65
2023-05-23T12:42:31.576Z,77.84
2023-05-23T12:43:31.574Z,77.84
2023-05-23T12:44:31.573Z,78.13
2023-05-23T12:45:31.570Z,77.94
2023-05-23T12:46:31.628Z,78.13
2023-05-23T12:47:31.673Z,77.84
2023-05-23T12:48:31.574Z,77.84
2023-05-23T12:49:31.587Z,77.65
2023-05-23T12:50:31.608Z,76.98
2023-05-23T12:51:31.579Z,76.69
2023-05-23T12:52:31.588Z,76.59